sensor_id;sensor_type;location;lat;lon;timestamp;P1;durP1;ratioP1;P2;durP2;ratioP2
28547;SDS011;68292;49.600;8.746;2024-01-30T00:00:06;15.07;;;12.30;;
28547;SDS011;68292;49.600;8.746;2024-01-30T00:02:37;15.23;;;13.63;;
28547;SDS011;68292;49.600;8.746;2024-01-30T00:05:06;14.73;;;13.23;;
28547;SDS011;68292;49.600;8.746;2024-01-30T00:07:35;14.17;;;12.67;;
28547;SDS011;68292;49.600;8.746;2024-01-30T00:10:04;16.23;;;12.43;;
28547;SDS011;68292;49.600;8.746;2024-01-30T00:12:34;14.70;;;12.77;;
28547;SDS011;68292;49.600;8.746;2024-01-30T00:15:03;14.93;;;12.57;;
28547;SDS011;68292;49.600;8.746;2024-01-30T00:17:36;14.37;;;12.67;;
28547;SDS011;68292;49.600;8.746;2024-01-30T00:20:05;16.67;;;14.17;;
28547;SDS011;68292;49.600;8.746;2024-01-30T00:22:36;17.60;;;14.07;;
28547;SDS011;68292;49.600;8.746;2024-01-30T00:25:06;15.67;;;13.17;;
28547;SDS011;68292;49.600;8.746;2024-01-30T00:27:35;14.80;;;13.23;;
28547;SDS011;68292;49.600;8.746;2024-01-30T00:30:06;19.83;;;14.33;;
28547;SDS011;68292;49.600;8.746;2024-01-30T00:32:36;16.03;;;13.50;;
28547;SDS011;68292;49.600;8.746;2024-01-30T00:35:05;16.17;;;13.13;;
28547;SDS011;68292;49.600;8.746;2024-01-30T00:37:36;15.53;;;13.93;;
28547;SDS011;68292;49.600;8.746;2024-01-30T00:40:05;18.10;;;13.77;;
28547;SDS011;68292;49.600;8.746;2024-01-30T00:42:37;19.77;;;13.80;;
28547;SDS011;68292;49.600;8.746;2024-01-30T00:45:11;16.90;;;14.20;;
28547;SDS011;68292;49.600;8.746;2024-01-30T00:47:41;18.77;;;14.43;;
28547;SDS011;68292;49.600;8.746;2024-01-30T00:50:10;14.37;;;12.27;;
28547;SDS011;68292;49.600;8.746;2024-01-30T00:52:40;16.97;;;14.03;;
28547;SDS011;68292;49.600;8.746;2024-01-30T00:55:12;14.17;;;12.73;;
28547;SDS011;68292;49.600;8.746;2024-01-30T00:57:41;15.30;;;13.80;;
28547;SDS011;68292;49.600;8.746;2024-01-30T01:00:14;14.83;;;13.10;;
28547;SDS011;68292;49.600;8.746;2024-01-30T01:02:44;19.40;;;13.87;;
28547;SDS011;68292;49.600;8.746;2024-01-30T01:05:13;16.80;;;13.47;;
28547;SDS011;68292;49.600;8.746;2024-01-30T01:07:41;16.73;;;12.90;;
28547;SDS011;68292;49.600;8.746;2024-01-30T01:10:10;14.83;;;13.30;;
28547;SDS011;68292;49.600;8.746;2024-01-30T01:12:40;14.63;;;12.67;;
28547;SDS011;68292;49.600;8.746;2024-01-30T01:15:09;14.87;;;12.83;;
28547;SDS011;68292;49.600;8.746;2024-01-30T01:17:40;14.37;;;12.40;;
28547;SDS011;68292;49.600;8.746;2024-01-30T01:20:09;15.80;;;13.00;;
28547;SDS011;68292;49.600;8.746;2024-01-30T01:22:38;14.87;;;12.20;;
28547;SDS011;68292;49.600;8.746;2024-01-30T01:25:08;16.50;;;14.60;;
28547;SDS011;68292;49.600;8.746;2024-01-30T01:27:37;17.63;;;14.60;;
28547;SDS011;68292;49.600;8.746;2024-01-30T01:30:09;14.40;;;12.90;;
28547;SDS011;68292;49.600;8.746;2024-01-30T01:32:42;17.33;;;14.03;;
28547;SDS011;68292;49.600;8.746;2024-01-30T01:35:17;15.77;;;13.27;;
28547;SDS011;68292;49.600;8.746;2024-01-30T01:37:45;15.70;;;14.07;;
28547;SDS011;68292;49.600;8.746;2024-01-30T01:40:14;15.87;;;13.80;;
28547;SDS011;68292;49.600;8.746;2024-01-30T01:42:43;16.37;;;13.10;;
28547;SDS011;68292;49.600;8.746;2024-01-30T01:45:12;15.73;;;12.87;;
28547;SDS011;68292;49.600;8.746;2024-01-30T01:47:42;14.70;;;13.20;;
28547;SDS011;68292;49.600;8.746;2024-01-30T01:50:14;13.47;;;11.67;;
28547;SDS011;68292;49.600;8.746;2024-01-30T01:52:46;14.93;;;12.93;;
28547;SDS011;68292;49.600;8.746;2024-01-30T01:55:16;15.07;;;12.30;;
28547;SDS011;68292;49.600;8.746;2024-01-30T01:57:48;18.40;;;13.63;;
28547;SDS011;68292;49.600;8.746;2024-01-30T02:00:17;14.30;;;12.47;;
28547;SDS011;68292;49.600;8.746;2024-01-30T02:02:49;15.30;;;13.07;;
28547;SDS011;68292;49.600;8.746;2024-01-30T02:05:18;13.33;;;11.87;;
28547;SDS011;68292;49.600;8.746;2024-01-30T02:07:47;18.17;;;12.33;;
28547;SDS011;68292;49.600;8.746;2024-01-30T02:10:17;12.30;;;10.93;;
28547;SDS011;68292;49.600;8.746;2024-01-30T02:12:46;16.53;;;13.27;;
28547;SDS011;68292;49.600;8.746;2024-01-30T02:15:14;14.43;;;12.13;;
28547;SDS011;68292;49.600;8.746;2024-01-30T02:17:43;13.47;;;11.17;;
28547;SDS011;68292;49.600;8.746;2024-01-30T02:20:13;14.33;;;11.90;;
28547;SDS011;68292;49.600;8.746;2024-01-30T02:22:44;13.93;;;11.53;;
28547;SDS011;68292;49.600;8.746;2024-01-30T02:25:13;15.10;;;13.07;;
28547;SDS011;68292;49.600;8.746;2024-01-30T02:27:42;16.87;;;12.90;;
28547;SDS011;68292;49.600;8.746;2024-01-30T02:30:11;15.40;;;12.33;;
28547;SDS011;68292;49.600;8.746;2024-01-30T02:32:41;13.93;;;10.60;;
28547;SDS011;68292;49.600;8.746;2024-01-30T02:35:10;11.53;;;10.27;;
28547;SDS011;68292;49.600;8.746;2024-01-30T02:37:38;11.20;;;10.10;;
28547;SDS011;68292;49.600;8.746;2024-01-30T02:40:09;13.97;;;12.23;;
28547;SDS011;68292;49.600;8.746;2024-01-30T02:42:38;12.90;;;10.53;;
28547;SDS011;68292;49.600;8.746;2024-01-30T02:45:09;13.83;;;11.57;;
28547;SDS011;68292;49.600;8.746;2024-01-30T02:47:39;12.87;;;10.43;;
28547;SDS011;68292;49.600;8.746;2024-01-30T02:50:09;11.63;;;10.37;;
28547;SDS011;68292;49.600;8.746;2024-01-30T02:52:38;12.87;;;11.37;;
28547;SDS011;68292;49.600;8.746;2024-01-30T02:55:08;13.77;;;11.20;;
28547;SDS011;68292;49.600;8.746;2024-01-30T02:57:37;12.37;;;10.57;;
28547;SDS011;68292;49.600;8.746;2024-01-30T03:00:06;11.30;;;9.90;;
28547;SDS011;68292;49.600;8.746;2024-01-30T03:02:37;12.33;;;10.10;;
28547;SDS011;68292;49.600;8.746;2024-01-30T03:05:07;12.43;;;10.00;;
28547;SDS011;68292;49.600;8.746;2024-01-30T03:07:36;10.47;;;9.37;;
28547;SDS011;68292;49.600;8.746;2024-01-30T03:10:05;12.10;;;10.13;;
28547;SDS011;68292;49.600;8.746;2024-01-30T03:12:36;11.37;;;9.73;;
28547;SDS011;68292;49.600;8.746;2024-01-30T03:15:05;12.77;;;10.73;;
28547;SDS011;68292;49.600;8.746;2024-01-30T03:17:36;11.10;;;8.70;;
28547;SDS011;68292;49.600;8.746;2024-01-30T03:20:05;10.53;;;9.33;;
28547;SDS011;68292;49.600;8.746;2024-01-30T03:22:36;11.57;;;9.60;;
28547;SDS011;68292;49.600;8.746;2024-01-30T03:25:04;10.07;;;8.57;;
28547;SDS011;68292;49.600;8.746;2024-01-30T03:27:34;9.60;;;8.60;;
28547;SDS011;68292;49.600;8.746;2024-01-30T03:30:05;9.90;;;8.90;;
28547;SDS011;68292;49.600;8.746;2024-01-30T03:32:36;13.47;;;8.87;;
28547;SDS011;68292;49.600;8.746;2024-01-30T03:35:05;11.23;;;9.97;;
28547;SDS011;68292;49.600;8.746;2024-01-30T03:37:34;12.07;;;10.17;;
28547;SDS011;68292;49.600;8.746;2024-01-30T03:40:04;10.63;;;9.53;;
28547;SDS011;68292;49.600;8.746;2024-01-30T03:42:34;10.90;;;9.80;;
28547;SDS011;68292;49.600;8.746;2024-01-30T03:45:05;10.53;;;9.23;;
28547;SDS011;68292;49.600;8.746;2024-01-30T03:47:35;10.63;;;9.53;;
28547;SDS011;68292;49.600;8.746;2024-01-30T03:50:04;12.70;;;10.13;;
28547;SDS011;68292;49.600;8.746;2024-01-30T03:52:33;11.63;;;9.90;;
28547;SDS011;68292;49.600;8.746;2024-01-30T03:55:02;10.07;;;9.07;;
28547;SDS011;68292;49.600;8.746;2024-01-30T03:57:32;10.43;;;9.20;;
28547;SDS011;68292;49.600;8.746;2024-01-30T04:00:01;11.83;;;9.63;;
28547;SDS011;68292;49.600;8.746;2024-01-30T04:02:39;12.23;;;9.93;;
28547;SDS011;68292;49.600;8.746;2024-01-30T04:05:08;11.77;;;8.87;;
28547;SDS011;68292;49.600;8.746;2024-01-30T04:07:37;12.00;;;9.03;;
28547;SDS011;68292;49.600;8.746;2024-01-30T04:10:06;11.93;;;9.13;;
28547;SDS011;68292;49.600;8.746;2024-01-30T04:12:36;11.27;;;9.47;;
28547;SDS011;68292;49.600;8.746;2024-01-30T04:15:05;9.60;;;8.63;;
28547;SDS011;68292;49.600;8.746;2024-01-30T04:17:34;11.80;;;9.30;;
28547;SDS011;68292;49.600;8.746;2024-01-30T04:20:05;10.40;;;9.30;;
28547;SDS011;68292;49.600;8.746;2024-01-30T04:22:35;9.70;;;8.73;;
28547;SDS011;68292;49.600;8.746;2024-01-30T04:25:04;10.87;;;8.87;;
28547;SDS011;68292;49.600;8.746;2024-01-30T04:27:33;11.57;;;9.17;;
28547;SDS011;68292;49.600;8.746;2024-01-30T04:30:02;10.67;;;9.57;;
28547;SDS011;68292;49.600;8.746;2024-01-30T04:32:32;10.83;;;9.40;;
28547;SDS011;68292;49.600;8.746;2024-01-30T04:35:00;10.17;;;9.10;;
28547;SDS011;68292;49.600;8.746;2024-01-30T04:37:33;11.07;;;9.80;;
28547;SDS011;68292;49.600;8.746;2024-01-30T04:40:02;9.97;;;8.97;;
28547;SDS011;68292;49.600;8.746;2024-01-30T04:42:32;10.23;;;9.20;;
28547;SDS011;68292;49.600;8.746;2024-01-30T04:45:01;11.00;;;9.00;;
28547;SDS011;68292;49.600;8.746;2024-01-30T04:47:30;10.17;;;9.00;;
28547;SDS011;68292;49.600;8.746;2024-01-30T04:49:59;10.27;;;9.23;;
28547;SDS011;68292;49.600;8.746;2024-01-30T04:52:28;8.53;;;7.63;;
28547;SDS011;68292;49.600;8.746;2024-01-30T04:54:58;10.93;;;8.27;;
28547;SDS011;68292;49.600;8.746;2024-01-30T04:57:27;8.63;;;7.83;;
28547;SDS011;68292;49.600;8.746;2024-01-30T04:59:56;10.77;;;8.90;;
28547;SDS011;68292;49.600;8.746;2024-01-30T05:02:25;10.40;;;9.30;;
28547;SDS011;68292;49.600;8.746;2024-01-30T05:04:54;9.73;;;8.17;;
28547;SDS011;68292;49.600;8.746;2024-01-30T05:07:24;9.37;;;8.20;;
28547;SDS011;68292;49.600;8.746;2024-01-30T05:09:53;9.77;;;8.00;;
28547;SDS011;68292;49.600;8.746;2024-01-30T05:12:26;9.63;;;8.63;;
28547;SDS011;68292;49.600;8.746;2024-01-30T05:14:55;9.50;;;8.17;;
28547;SDS011;68292;49.600;8.746;2024-01-30T05:17:24;9.43;;;8.17;;
28547;SDS011;68292;49.600;8.746;2024-01-30T05:19:53;8.90;;;7.73;;
28547;SDS011;68292;49.600;8.746;2024-01-30T05:22:21;8.80;;;7.90;;
28547;SDS011;68292;49.600;8.746;2024-01-30T05:24:50;9.70;;;8.30;;
28547;SDS011;68292;49.600;8.746;2024-01-30T05:27:19;9.97;;;8.47;;
28547;SDS011;68292;49.600;8.746;2024-01-30T05:29:50;9.17;;;8.37;;
28547;SDS011;68292;49.600;8.746;2024-01-30T05:32:19;9.23;;;7.60;;
28547;SDS011;68292;49.600;8.746;2024-01-30T05:34:47;9.77;;;8.30;;
28547;SDS011;68292;49.600;8.746;2024-01-30T05:37:17;9.50;;;8.10;;
28547;SDS011;68292;49.600;8.746;2024-01-30T05:39:46;9.30;;;8.00;;
28547;SDS011;68292;49.600;8.746;2024-01-30T05:42:15;8.83;;;7.93;;
28547;SDS011;68292;49.600;8.746;2024-01-30T05:44:43;7.53;;;6.73;;
28547;SDS011;68292;49.600;8.746;2024-01-30T05:47:14;11.27;;;7.20;;
28547;SDS011;68292;49.600;8.746;2024-01-30T05:49:43;7.80;;;6.73;;
28547;SDS011;68292;49.600;8.746;2024-01-30T05:52:12;7.93;;;7.13;;
28547;SDS011;68292;49.600;8.746;2024-01-30T05:54:42;9.07;;;7.60;;
28547;SDS011;68292;49.600;8.746;2024-01-30T05:57:11;8.10;;;7.23;;
28547;SDS011;68292;49.600;8.746;2024-01-30T05:59:39;7.50;;;6.67;;
28547;SDS011;68292;49.600;8.746;2024-01-30T06:02:08;9.47;;;8.47;;
28547;SDS011;68292;49.600;8.746;2024-01-30T06:04:39;7.70;;;6.57;;
28547;SDS011;68292;49.600;8.746;2024-01-30T06:07:08;7.07;;;6.30;;
28547;SDS011;68292;49.600;8.746;2024-01-30T06:09:37;9.13;;;7.07;;
28547;SDS011;68292;49.600;8.746;2024-01-30T06:12:07;7.80;;;7.00;;
28547;SDS011;68292;49.600;8.746;2024-01-30T06:14:38;8.87;;;6.80;;
28547;SDS011;68292;49.600;8.746;2024-01-30T06:17:13;8.00;;;6.77;;
28547;SDS011;68292;49.600;8.746;2024-01-30T06:19:43;8.33;;;6.90;;
28547;SDS011;68292;49.600;8.746;2024-01-30T06:22:12;8.70;;;7.47;;
28547;SDS011;68292;49.600;8.746;2024-01-30T06:24:41;9.13;;;7.50;;
28547;SDS011;68292;49.600;8.746;2024-01-30T06:27:11;8.77;;;7.90;;
28547;SDS011;68292;49.600;8.746;2024-01-30T06:29:40;9.27;;;7.63;;
28547;SDS011;68292;49.600;8.746;2024-01-30T06:32:10;8.60;;;7.47;;
28547;SDS011;68292;49.600;8.746;2024-01-30T06:34:39;9.47;;;7.47;;
28547;SDS011;68292;49.600;8.746;2024-01-30T06:37:11;7.10;;;6.40;;
28547;SDS011;68292;49.600;8.746;2024-01-30T06:39:40;11.27;;;7.93;;
28547;SDS011;68292;49.600;8.746;2024-01-30T06:42:09;7.83;;;6.90;;
28547;SDS011;68292;49.600;8.746;2024-01-30T06:44:38;8.47;;;7.57;;
28547;SDS011;68292;49.600;8.746;2024-01-30T06:47:07;8.87;;;7.73;;
28547;SDS011;68292;49.600;8.746;2024-01-30T06:49:36;7.57;;;6.77;;
28547;SDS011;68292;49.600;8.746;2024-01-30T06:52:07;8.13;;;7.13;;
28547;SDS011;68292;49.600;8.746;2024-01-30T06:54:36;8.27;;;7.57;;
28547;SDS011;68292;49.600;8.746;2024-01-30T06:57:05;8.40;;;7.57;;
28547;SDS011;68292;49.600;8.746;2024-01-30T06:59:35;8.03;;;7.07;;
28547;SDS011;68292;49.600;8.746;2024-01-30T07:02:08;8.80;;;7.73;;
28547;SDS011;68292;49.600;8.746;2024-01-30T07:04:37;8.30;;;7.50;;
28547;SDS011;68292;49.600;8.746;2024-01-30T07:07:14;8.33;;;7.20;;
28547;SDS011;68292;49.600;8.746;2024-01-30T07:09:43;8.13;;;7.33;;
28547;SDS011;68292;49.600;8.746;2024-01-30T07:12:14;7.50;;;6.80;;
28547;SDS011;68292;49.600;8.746;2024-01-30T07:14:43;9.30;;;7.77;;
28547;SDS011;68292;49.600;8.746;2024-01-30T07:17:11;8.70;;;7.17;;
28547;SDS011;68292;49.600;8.746;2024-01-30T07:19:40;9.30;;;7.93;;
28547;SDS011;68292;49.600;8.746;2024-01-30T07:22:09;10.87;;;7.33;;
28547;SDS011;68292;49.600;8.746;2024-01-30T07:24:43;8.33;;;7.53;;
28547;SDS011;68292;49.600;8.746;2024-01-30T07:27:15;11.30;;;10.10;;
28547;SDS011;68292;49.600;8.746;2024-01-30T07:29:44;10.53;;;9.50;;
28547;SDS011;68292;49.600;8.746;2024-01-30T07:32:13;11.13;;;9.50;;
28547;SDS011;68292;49.600;8.746;2024-01-30T07:34:42;10.67;;;9.67;;
28547;SDS011;68292;49.600;8.746;2024-01-30T07:37:28;10.30;;;8.07;;
28547;SDS011;68292;49.600;8.746;2024-01-30T07:39:59;9.23;;;7.80;;
28547;SDS011;68292;49.600;8.746;2024-01-30T07:42:27;10.47;;;8.20;;
28547;SDS011;68292;49.600;8.746;2024-01-30T07:44:56;10.37;;;7.67;;
28547;SDS011;68292;49.600;8.746;2024-01-30T07:47:25;9.60;;;8.40;;
28547;SDS011;68292;49.600;8.746;2024-01-30T07:49:54;8.87;;;8.03;;
28547;SDS011;68292;49.600;8.746;2024-01-30T07:52:23;10.33;;;8.17;;
28547;SDS011;68292;49.600;8.746;2024-01-30T07:54:54;8.73;;;7.70;;
28547;SDS011;68292;49.600;8.746;2024-01-30T07:57:25;9.60;;;7.40;;
28547;SDS011;68292;49.600;8.746;2024-01-30T07:59:53;7.97;;;7.17;;
28547;SDS011;68292;49.600;8.746;2024-01-30T08:02:24;8.07;;;7.13;;
28547;SDS011;68292;49.600;8.746;2024-01-30T08:04:52;8.20;;;7.40;;
28547;SDS011;68292;49.600;8.746;2024-01-30T08:07:21;8.30;;;6.97;;
28547;SDS011;68292;49.600;8.746;2024-01-30T08:09:50;8.50;;;7.30;;
28547;SDS011;68292;49.600;8.746;2024-01-30T08:12:19;7.00;;;6.30;;
28547;SDS011;68292;49.600;8.746;2024-01-30T08:14:49;8.70;;;7.90;;
28547;SDS011;68292;49.600;8.746;2024-01-30T08:17:18;8.13;;;7.33;;
28547;SDS011;68292;49.600;8.746;2024-01-30T08:19:46;8.37;;;7.57;;
28547;SDS011;68292;49.600;8.746;2024-01-30T08:22:15;7.97;;;7.27;;
28547;SDS011;68292;49.600;8.746;2024-01-30T08:24:44;9.53;;;7.97;;
28547;SDS011;68292;49.600;8.746;2024-01-30T08:27:13;9.33;;;8.33;;
28547;SDS011;68292;49.600;8.746;2024-01-30T08:29:41;8.83;;;8.03;;
28547;SDS011;68292;49.600;8.746;2024-01-30T08:32:11;9.37;;;8.47;;
28547;SDS011;68292;49.600;8.746;2024-01-30T08:34:40;9.53;;;8.10;;
28547;SDS011;68292;49.600;8.746;2024-01-30T08:37:09;11.70;;;9.00;;
28547;SDS011;68292;49.600;8.746;2024-01-30T08:39:38;8.63;;;7.73;;
28547;SDS011;68292;49.600;8.746;2024-01-30T08:42:07;8.80;;;7.97;;
28547;SDS011;68292;49.600;8.746;2024-01-30T08:44:36;9.53;;;8.63;;
28547;SDS011;68292;49.600;8.746;2024-01-30T08:47:05;10.07;;;8.30;;
28547;SDS011;68292;49.600;8.746;2024-01-30T08:49:35;9.80;;;8.80;;
28547;SDS011;68292;49.600;8.746;2024-01-30T08:52:04;11.50;;;10.17;;
28547;SDS011;68292;49.600;8.746;2024-01-30T08:54:33;9.73;;;8.73;;
28547;SDS011;68292;49.600;8.746;2024-01-30T08:57:02;10.40;;;9.17;;
28547;SDS011;68292;49.600;8.746;2024-01-30T08:59:32;11.43;;;9.63;;
28547;SDS011;68292;49.600;8.746;2024-01-30T09:02:00;9.70;;;8.70;;
28547;SDS011;68292;49.600;8.746;2024-01-30T09:04:39;9.20;;;8.27;;
28547;SDS011;68292;49.600;8.746;2024-01-30T09:07:08;10.17;;;8.93;;
28547;SDS011;68292;49.600;8.746;2024-01-30T09:09:38;10.00;;;8.97;;
28547;SDS011;68292;49.600;8.746;2024-01-30T09:12:08;11.77;;;10.53;;
28547;SDS011;68292;49.600;8.746;2024-01-30T09:14:39;10.20;;;9.07;;
28547;SDS011;68292;49.600;8.746;2024-01-30T09:17:08;10.83;;;9.83;;
28547;SDS011;68292;49.600;8.746;2024-01-30T09:19:37;12.00;;;10.20;;
28547;SDS011;68292;49.600;8.746;2024-01-30T09:22:09;10.53;;;9.43;;
28547;SDS011;68292;49.600;8.746;2024-01-30T09:24:38;11.17;;;10.07;;
28547;SDS011;68292;49.600;8.746;2024-01-30T09:27:07;12.37;;;11.13;;
28547;SDS011;68292;49.600;8.746;2024-01-30T09:29:36;11.40;;;10.20;;
28547;SDS011;68292;49.600;8.746;2024-01-30T09:32:06;12.70;;;10.63;;
28547;SDS011;68292;49.600;8.746;2024-01-30T09:34:36;10.67;;;9.60;;
28547;SDS011;68292;49.600;8.746;2024-01-30T09:37:09;10.63;;;9.53;;
28547;SDS011;68292;49.600;8.746;2024-01-30T09:39:38;11.23;;;10.13;;
28547;SDS011;68292;49.600;8.746;2024-01-30T09:42:09;9.77;;;8.80;;
28547;SDS011;68292;49.600;8.746;2024-01-30T09:44:46;8.93;;;8.13;;
28547;SDS011;68292;49.600;8.746;2024-01-30T09:47:19;7.80;;;7.00;;
28547;SDS011;68292;49.600;8.746;2024-01-30T09:49:47;6.77;;;6.17;;
28547;SDS011;68292;49.600;8.746;2024-01-30T09:52:19;7.10;;;6.40;;
28547;SDS011;68292;49.600;8.746;2024-01-30T09:54:48;10.20;;;9.20;;
28547;SDS011;68292;49.600;8.746;2024-01-30T09:57:19;18.13;;;14.23;;
28547;SDS011;68292;49.600;8.746;2024-01-30T09:59:48;14.33;;;12.03;;
28547;SDS011;68292;49.600;8.746;2024-01-30T10:02:18;10.90;;;9.53;;
28547;SDS011;68292;49.600;8.746;2024-01-30T10:04:47;9.97;;;8.37;;
28547;SDS011;68292;49.600;8.746;2024-01-30T10:07:18;10.50;;;9.33;;
28547;SDS011;68292;49.600;8.746;2024-01-30T10:09:47;8.23;;;7.30;;
28547;SDS011;68292;49.600;8.746;2024-01-30T10:12:16;9.50;;;8.50;;
28547;SDS011;68292;49.600;8.746;2024-01-30T10:14:45;9.20;;;8.30;;
28547;SDS011;68292;49.600;8.746;2024-01-30T10:17:15;11.07;;;10.07;;
28547;SDS011;68292;49.600;8.746;2024-01-30T10:19:58;13.77;;;9.50;;
28547;SDS011;68292;49.600;8.746;2024-01-30T10:22:29;10.73;;;9.63;;
28547;SDS011;68292;49.600;8.746;2024-01-30T10:24:58;11.07;;;10.07;;
28547;SDS011;68292;49.600;8.746;2024-01-30T10:27:32;9.83;;;8.83;;
28547;SDS011;68292;49.600;8.746;2024-01-30T10:30:01;8.70;;;7.83;;
28547;SDS011;68292;49.600;8.746;2024-01-30T10:32:31;8.33;;;7.23;;
28547;SDS011;68292;49.600;8.746;2024-01-30T10:34:59;8.97;;;8.13;;
28547;SDS011;68292;49.600;8.746;2024-01-30T10:37:30;7.30;;;6.47;;
28547;SDS011;68292;49.600;8.746;2024-01-30T10:40:02;6.83;;;6.20;;
28547;SDS011;68292;49.600;8.746;2024-01-30T10:42:33;7.20;;;6.47;;
28547;SDS011;68292;49.600;8.746;2024-01-30T10:45:06;8.63;;;7.57;;
28547;SDS011;68292;49.600;8.746;2024-01-30T10:47:36;9.50;;;8.40;;
28547;SDS011;68292;49.600;8.746;2024-01-30T10:50:05;12.03;;;8.57;;
28547;SDS011;68292;49.600;8.746;2024-01-30T10:52:39;9.93;;;9.03;;
28547;SDS011;68292;49.600;8.746;2024-01-30T10:55:09;10.13;;;9.07;;
28547;SDS011;68292;49.600;8.746;2024-01-30T10:57:38;9.90;;;8.90;;
28547;SDS011;68292;49.600;8.746;2024-01-30T11:00:08;9.17;;;7.80;;
28547;SDS011;68292;49.600;8.746;2024-01-30T11:02:40;10.50;;;9.37;;
28547;SDS011;68292;49.600;8.746;2024-01-30T11:05:11;9.47;;;8.23;;
28547;SDS011;68292;49.600;8.746;2024-01-30T11:07:44;9.90;;;8.90;;
28547;SDS011;68292;49.600;8.746;2024-01-30T11:10:12;11.60;;;10.33;;
28547;SDS011;68292;49.600;8.746;2024-01-30T11:12:42;11.97;;;9.07;;
28547;SDS011;68292;49.600;8.746;2024-01-30T11:15:13;11.67;;;8.93;;
28547;SDS011;68292;49.600;8.746;2024-01-30T11:17:44;9.33;;;8.43;;
28547;SDS011;68292;49.600;8.746;2024-01-30T11:20:20;8.37;;;7.50;;
28547;SDS011;68292;49.600;8.746;2024-01-30T11:22:52;11.73;;;10.63;;
28547;SDS011;68292;49.600;8.746;2024-01-30T11:25:23;13.30;;;12.00;;
28547;SDS011;68292;49.600;8.746;2024-01-30T11:27:54;10.23;;;9.23;;
28547;SDS011;68292;49.600;8.746;2024-01-30T11:30:24;8.40;;;6.90;;
28547;SDS011;68292;49.600;8.746;2024-01-30T11:33:00;8.43;;;7.60;;
28547;SDS011;68292;49.600;8.746;2024-01-30T11:35:33;8.50;;;7.50;;
28547;SDS011;68292;49.600;8.746;2024-01-30T11:38:05;7.67;;;6.83;;
28547;SDS011;68292;49.600;8.746;2024-01-30T11:40:36;6.73;;;6.13;;
28547;SDS011;68292;49.600;8.746;2024-01-30T11:43:06;8.37;;;6.00;;
28547;SDS011;68292;49.600;8.746;2024-01-30T11:45:36;6.90;;;6.20;;
28547;SDS011;68292;49.600;8.746;2024-01-30T11:48:06;5.50;;;5.00;;
28547;SDS011;68292;49.600;8.746;2024-01-30T11:50:38;5.70;;;5.20;;
28547;SDS011;68292;49.600;8.746;2024-01-30T11:53:09;5.60;;;5.10;;
28547;SDS011;68292;49.600;8.746;2024-01-30T11:55:38;6.20;;;5.60;;
28547;SDS011;68292;49.600;8.746;2024-01-30T11:58:07;5.97;;;5.37;;
28547;SDS011;68292;49.600;8.746;2024-01-30T12:00:36;6.40;;;5.30;;
28547;SDS011;68292;49.600;8.746;2024-01-30T12:03:05;5.57;;;5.07;;
28547;SDS011;68292;49.600;8.746;2024-01-30T12:05:34;6.57;;;4.80;;
28547;SDS011;68292;49.600;8.746;2024-01-30T12:08:15;5.27;;;4.80;;
28547;SDS011;68292;49.600;8.746;2024-01-30T12:10:44;4.83;;;4.43;;
28547;SDS011;68292;49.600;8.746;2024-01-30T12:13:13;4.83;;;4.43;;
28547;SDS011;68292;49.600;8.746;2024-01-30T12:15:43;17.23;;;12.93;;
28547;SDS011;68292;49.600;8.746;2024-01-30T12:18:12;11.27;;;9.37;;
28547;SDS011;68292;49.600;8.746;2024-01-30T12:20:40;8.47;;;6.70;;
28547;SDS011;68292;49.600;8.746;2024-01-30T12:23:11;6.33;;;5.73;;
28547;SDS011;68292;49.600;8.746;2024-01-30T12:25:42;6.37;;;5.73;;
28547;SDS011;68292;49.600;8.746;2024-01-30T12:28:11;5.93;;;5.33;;
28547;SDS011;68292;49.600;8.746;2024-01-30T12:30:40;5.10;;;4.60;;
28547;SDS011;68292;49.600;8.746;2024-01-30T12:33:09;6.20;;;5.60;;
28547;SDS011;68292;49.600;8.746;2024-01-30T12:35:47;5.90;;;5.40;;
28547;SDS011;68292;49.600;8.746;2024-01-30T12:38:28;5.63;;;5.00;;
28547;SDS011;68292;49.600;8.746;2024-01-30T12:40:58;5.50;;;5.00;;
28547;SDS011;68292;49.600;8.746;2024-01-30T12:43:27;7.27;;;6.13;;
28547;SDS011;68292;49.600;8.746;2024-01-30T12:46:04;4.80;;;4.40;;
28547;SDS011;68292;49.600;8.746;2024-01-30T12:48:34;6.33;;;5.10;;
28547;SDS011;68292;49.600;8.746;2024-01-30T12:51:03;5.27;;;4.73;;
28547;SDS011;68292;49.600;8.746;2024-01-30T12:53:32;5.90;;;4.80;;
28547;SDS011;68292;49.600;8.746;2024-01-30T12:56:03;6.60;;;4.93;;
28547;SDS011;68292;49.600;8.746;2024-01-30T12:58:32;7.17;;;5.27;;
28547;SDS011;68292;49.600;8.746;2024-01-30T13:01:00;6.83;;;5.20;;
28547;SDS011;68292;49.600;8.746;2024-01-30T13:03:29;6.37;;;5.57;;
28547;SDS011;68292;49.600;8.746;2024-01-30T13:06:00;5.30;;;4.80;;
28547;SDS011;68292;49.600;8.746;2024-01-30T13:08:29;5.43;;;4.73;;
28547;SDS011;68292;49.600;8.746;2024-01-30T13:10:57;6.27;;;5.10;;
28547;SDS011;68292;49.600;8.746;2024-01-30T13:13:27;5.70;;;5.20;;
28547;SDS011;68292;49.600;8.746;2024-01-30T13:15:57;6.30;;;5.13;;
28547;SDS011;68292;49.600;8.746;2024-01-30T13:18:25;5.50;;;5.00;;
28547;SDS011;68292;49.600;8.746;2024-01-30T13:20:54;5.47;;;4.97;;
28547;SDS011;68292;49.600;8.746;2024-01-30T13:23:24;5.90;;;5.27;;
28547;SDS011;68292;49.600;8.746;2024-01-30T13:25:52;6.53;;;5.10;;
28547;SDS011;68292;49.600;8.746;2024-01-30T13:28:24;5.03;;;4.63;;
28547;SDS011;68292;49.600;8.746;2024-01-30T13:30:55;5.83;;;5.33;;
28547;SDS011;68292;49.600;8.746;2024-01-30T13:33:25;5.57;;;5.07;;
28547;SDS011;68292;49.600;8.746;2024-01-30T13:35:54;5.20;;;4.80;;
28547;SDS011;68292;49.600;8.746;2024-01-30T13:38:23;5.53;;;5.03;;
28547;SDS011;68292;49.600;8.746;2024-01-30T13:40:52;7.70;;;5.10;;
28547;SDS011;68292;49.600;8.746;2024-01-30T13:43:21;7.40;;;5.27;;
28547;SDS011;68292;49.600;8.746;2024-01-30T13:45:50;5.17;;;4.67;;
28547;SDS011;68292;49.600;8.746;2024-01-30T13:48:20;5.97;;;5.00;;
28547;SDS011;68292;49.600;8.746;2024-01-30T13:50:49;7.20;;;5.87;;
28547;SDS011;68292;49.600;8.746;2024-01-30T13:53:20;7.17;;;5.23;;
28547;SDS011;68292;49.600;8.746;2024-01-30T13:55:49;6.70;;;5.20;;
28547;SDS011;68292;49.600;8.746;2024-01-30T13:58:20;6.87;;;4.90;;
28547;SDS011;68292;49.600;8.746;2024-01-30T14:00:54;5.27;;;4.67;;
28547;SDS011;68292;49.600;8.746;2024-01-30T14:03:25;10.03;;;8.30;;
28547;SDS011;68292;49.600;8.746;2024-01-30T14:05:54;9.10;;;7.30;;
28547;SDS011;68292;49.600;8.746;2024-01-30T14:08:23;8.43;;;6.40;;
28547;SDS011;68292;49.600;8.746;2024-01-30T14:10:54;6.70;;;6.00;;
28547;SDS011;68292;49.600;8.746;2024-01-30T14:13:23;6.20;;;5.60;;
28547;SDS011;68292;49.600;8.746;2024-01-30T14:15:52;6.40;;;5.67;;
28547;SDS011;68292;49.600;8.746;2024-01-30T14:18:22;6.83;;;6.23;;
28547;SDS011;68292;49.600;8.746;2024-01-30T14:20:53;6.83;;;6.23;;
28547;SDS011;68292;49.600;8.746;2024-01-30T14:23:22;8.77;;;6.67;;
28547;SDS011;68292;49.600;8.746;2024-01-30T14:25:51;6.30;;;5.70;;
28547;SDS011;68292;49.600;8.746;2024-01-30T14:28:20;6.93;;;5.97;;
28547;SDS011;68292;49.600;8.746;2024-01-30T14:30:49;7.13;;;5.27;;
28547;SDS011;68292;49.600;8.746;2024-01-30T14:33:18;5.90;;;5.40;;
28547;SDS011;68292;49.600;8.746;2024-01-30T14:35:47;6.03;;;5.43;;
28547;SDS011;68292;49.600;8.746;2024-01-30T14:38:17;8.23;;;7.03;;
28547;SDS011;68292;49.600;8.746;2024-01-30T14:40:45;7.53;;;6.83;;
28547;SDS011;68292;49.600;8.746;2024-01-30T14:43:14;8.90;;;6.40;;
28547;SDS011;68292;49.600;8.746;2024-01-30T14:45:43;7.43;;;6.07;;
28547;SDS011;68292;49.600;8.746;2024-01-30T14:48:15;7.00;;;6.30;;
28547;SDS011;68292;49.600;8.746;2024-01-30T14:50:45;7.30;;;6.47;;
28547;SDS011;68292;49.600;8.746;2024-01-30T14:53:14;8.20;;;7.40;;